Time;durP1;ratioP1;P1;durP2;ratioP2;P2;SDS_P1;SDS_P2;PMS_P1;PMS_P2;Temp;Humidity;BMP_temperature;BMP_pressure;BME280_temperature;BME280_humidity;BME280_pressure;Samples;Min_cycle;Max_cycle;Signal;HPM_P1;HPM_P2
2022/10/25 00:00:38;;;;;;;7.20;2.42;;;;;;;12.40;100.00;101065.94;4990195;28;20065;-76
2022/10/25 00:03:07;;;;;;;8.30;3.15;;;;;;;12.40;100.00;101061.38;4989123;28;20100;-75
2022/10/25 00:05:33;;;;;;;11.15;2.92;;;;;;;12.40;100.00;101057.75;4988687;28;20122;-75
2022/10/25 00:07:59;;;;;;;10.82;3.97;;;;;;;12.42;100.00;101067.56;4990628;28;20534;-75
2022/10/25 00:10:25;;;;;;;11.18;3.03;;;;;;;12.41;100.00;101071.28;4990419;28;20034;-75
2022/10/25 00:12:50;;;;;;;10.35;2.83;;;;;;;12.41;100.00;101068.56;4990267;28;20038;-75
2022/10/25 00:15:16;;;;;;;9.55;2.60;;;;;;;12.38;100.00;101070.66;4988710;28;20041;-74
2022/10/25 00:17:42;;;;;;;7.43;2.55;;;;;;;12.39;100.00;101075.09;4990491;28;20053;-75
2022/10/25 00:20:09;;;;;;;10.23;2.28;;;;;;;12.41;100.00;101079.47;4990021;28;20038;-75
2022/10/25 00:22:34;;;;;;;11.63;3.65;;;;;;;12.42;100.00;101070.28;4988824;28;20105;-75
2022/10/25 00:24:59;;;;;;;5.25;2.28;;;;;;;12.47;100.00;101075.41;4992745;28;20555;-75
2022/10/25 00:27:25;;;;;;;13.45;3.58;;;;;;;12.50;100.00;101083.38;4994992;28;20041;-75
2022/10/25 00:29:51;;;;;;;9.93;2.40;;;;;;;12.51;100.00;101085.97;5001125;28;20088;-74
2022/10/25 00:32:17;;;;;;;13.60;3.22;;;;;;;12.52;100.00;101089.56;5001967;28;20039;-75
2022/10/25 00:34:43;;;;;;;11.50;2.90;;;;;;;12.55;100.00;101080.28;4995848;28;20050;-75
2022/10/25 00:37:08;;;;;;;6.85;2.58;;;;;;;12.57;100.00;101086.47;5008957;28;20053;-74
2022/10/25 00:39:33;;;;;;;9.55;2.53;;;;;;;12.58;100.00;101085.47;5008592;28;20048;-75
2022/10/25 00:41:59;;;;;;;10.65;2.75;;;;;;;12.62;100.00;101085.13;4991623;28;20037;-75
2022/10/25 00:44:49;;;;;;;9.10;2.60;;;;;;;12.68;100.00;101086.50;4997571;28;20026;-74
2022/10/25 00:47:19;;;;;;;9.70;3.22;;;;;;;12.71;100.00;101086.28;5008785;28;20083;-74
2022/10/25 00:49:56;;;;;;;6.07;2.55;;;;;;;12.74;100.00;101094.25;5002474;28;20037;-74
2022/10/25 00:52:22;;;;;;;12.13;3.03;;;;;;;12.77;100.00;101089.38;4997863;28;20136;-74
2022/10/25 00:54:50;;;;;;;10.38;2.60;;;;;;;12.81;100.00;101086.44;5008771;28;20098;-74
2022/10/25 00:57:21;;;;;;;9.27;2.70;;;;;;;12.80;100.00;101081.97;4988994;28;20034;-74
2022/10/25 00:59:48;;;;;;;16.88;2.53;;;;;;;12.83;100.00;101089.94;4987748;28;20190;-74
2022/10/25 01:02:13;;;;;;;10.48;2.47;;;;;;;12.84;100.00;101086.19;4988027;28;20040;-75
2022/10/25 01:04:39;;;;;;;8.75;2.78;;;;;;;12.87;100.00;101091.41;4989118;28;20117;-75
2022/10/25 01:07:05;;;;;;;12.77;2.47;;;;;;;12.83;100.00;101082.59;4988118;28;20041;-75
2022/10/25 01:09:32;;;;;;;12.35;2.55;;;;;;;12.83;100.00;101090.78;4990153;28;20034;-75
2022/10/25 01:11:58;;;;;;;7.75;2.60;;;;;;;12.81;100.00;101089.16;4991957;28;20069;-75
2022/10/25 01:14:25;;;;;;;8.75;2.15;;;;;;;12.75;100.00;101096.84;4998764;28;20060;-75
2022/10/25 01:17:16;;;;;;;17.63;3.20;;;;;;;12.72;100.00;101101.66;5007272;28;20049;-75
2022/10/25 01:20:02;;;;;;;15.30;2.55;;;;;;;12.68;100.00;101101.06;4989701;28;20374;-75
2022/10/25 01:22:34;;;;;;;9.48;2.80;;;;;;;12.68;100.00;101097.41;4989602;28;20030;-75
2022/10/25 01:25:55;;;;;;;19.95;2.72;;;;;;;12.66;100.00;101100.28;4989015;28;20438;-75
2022/10/25 01:28:56;;;;;;;9.80;2.42;;;;;;;12.64;100.00;101106.88;4974656;28;20497;-75
2022/10/25 01:31:30;;;;;;;14.15;2.50;;;;;;;12.61;100.00;101105.22;5008824;28;20042;-76
2022/10/25 01:34:09;;;;;;;11.52;3.10;;;;;;;12.60;100.00;101103.50;5003273;28;20402;-75
2022/10/25 01:37:07;;;;;;;5.00;2.10;;;;;;;12.63;100.00;101111.44;4989236;28;20035;-76
2022/10/25 01:40:07;;;;;;;6.95;2.72;;;;;;;12.66;100.00;101107.59;5008728;28;20038;-75
2022/10/25 01:42:52;;;;;;;8.32;3.08;;;;;;;12.69;100.00;101113.72;4995153;28;20049;-76
2022/10/25 01:45:28;;;;;;;12.63;2.30;;;;;;;12.71;100.00;101119.91;4992675;28;20136;-76
2022/10/25 01:48:17;;;;;;;11.35;2.08;;;;;;;12.75;100.00;101109.63;4989105;28;20093;-75
2022/10/25 01:50:46;;;;;;;10.13;2.33;;;;;;;12.74;100.00;101110.63;4989120;28;20030;-76
2022/10/25 01:53:13;;;;;;;14.32;3.90;;;;;;;12.71;100.00;101113.56;4989447;28;20172;-76
2022/10/25 01:55:46;;;;;;;12.68;2.40;;;;;;;12.72;100.00;101115.31;4996559;28;20137;-75
2022/10/25 01:58:37;;;;;;;9.23;2.20;;;;;;;12.70;100.00;101122.75;5000437;28;20092;-75
2022/10/25 02:01:14;;;;;;;7.40;2.55;;;;;;;12.70;100.00;101125.50;5004391;28;20462;-75
2022/10/25 02:03:53;;;;;;;11.27;2.60;;;;;;;12.66;100.00;101116.66;4989233;28;20053;-77
2022/10/25 02:06:57;;;;;;;8.00;1.90;;;;;;;12.64;100.00;101117.78;4988800;28;20129;-75
2022/10/25 02:09:50;;;;;;;9.98;1.90;;;;;;;12.64;100.00;101125.97;5001086;28;20188;-75
2022/10/25 02:12:29;;;;;;;10.45;2.15;;;;;;;12.65;100.00;101123.13;5002111;28;20053;-75
2022/10/25 02:15:09;;;;;;;14.27;2.33;;;;;;;12.68;100.00;101135.63;5007180;28;20033;-76
2022/10/25 02:17:42;;;;;;;11.93;1.88;;;;;;;12.71;100.00;101129.94;5009859;28;20040;-75
2022/10/25 02:20:11;;;;;;;7.50;1.73;;;;;;;12.70;100.00;101128.22;4997948;28;20038;-75
2022/10/25 02:22:38;;;;;;;8.93;1.80;;;;;;;12.69;100.00;101123.75;4992514;28;20045;-75
2022/10/25 02:25:07;;;;;;;13.45;1.90;;;;;;;12.65;100.00;101124.97;4992054;28;20041;-74
2022/10/25 02:27:34;;;;;;;8.75;2.25;;;;;;;12.61;100.00;101123.47;4993906;28;21868;-76
2022/10/25 02:30:00;;;;;;;9.18;2.50;;;;;;;12.60;100.00;101132.66;4997116;28;20135;-75
2022/10/25 02:32:25;;;;;;;11.18;2.20;;;;;;;12.58;100.00;101140.06;4992402;28;20037;-75
2022/10/25 02:34:51;;;;;;;7.38;2.10;;;;;;;12.56;100.00;101147.50;4990543;28;20054;-75
2022/10/25 02:37:17;;;;;;;7.80;1.58;;;;;;;12.51;100.00;101147.88;4990875;28;20038;-74
2022/10/25 02:39:44;;;;;;;8.00;1.80;;;;;;;12.46;100.00;101150.94;4991157;28;20034;-75
2022/10/25 02:42:09;;;;;;;7.32;2.03;;;;;;;12.43;100.00;101142.09;4992171;28;20107;-75
2022/10/25 02:44:35;;;;;;;8.85;2.55;;;;;;;12.44;100.00;101149.28;5000877;28;20045;-75
2022/10/25 02:47:00;;;;;;;7.20;2.20;;;;;;;12.42;100.00;101154.00;5011503;28;20034;-75
2022/10/25 02:49:26;;;;;;;13.02;2.70;;;;;;;12.40;100.00;101148.69;5004505;28;20494;-75
2022/10/25 02:51:51;;;;;;;10.48;2.63;;;;;;;12.37;100.00;101148.03;4991763;28;20026;-75
2022/10/25 02:54:16;;;;;;;9.65;2.20;;;;;;;12.37;100.00;101148.03;4991802;28;20088;-76
2022/10/25 02:56:42;;;;;;;8.52;3.33;;;;;;;12.41;100.00;101157.75;4992128;28;20041;-76
2022/10/25 02:59:10;;;;;;;9.02;2.25;;;;;;;12.41;100.00;101152.28;4998048;28;20045;-75
2022/10/25 03:01:35;;;;;;;7.47;2.22;;;;;;;12.40;100.00;101148.69;4991822;28;20042;-75
2022/10/25 03:04:01;;;;;;;10.50;2.50;;;;;;;12.38;100.00;101155.22;4992042;28;20101;-75
2022/10/25 03:06:26;;;;;;;8.32;2.47;;;;;;;12.37;100.00;101153.50;4991690;28;20026;-75
2022/10/25 03:08:52;;;;;;;9.85;3.03;;;;;;;12.34;100.00;101156.44;4991500;28;20501;-75
2022/10/25 03:11:18;;;;;;;10.50;2.10;;;;;;;12.31;100.00;101157.56;4990027;28;20034;-75
2022/10/25 03:13:43;;;;;;;9.15;2.20;;;;;;;12.31;100.00;101156.66;4995378;28;20503;-75
2022/10/25 03:16:09;;;;;;;12.63;3.63;;;;;;;12.29;100.00;101161.38;4990069;28;20042;-75
2022/10/25 03:18:34;;;;;;;7.13;2.28;;;;;;;12.25;100.00;101167.03;4991342;28;20085;-75
2022/10/25 03:21:01;;;;;;;9.23;2.13;;;;;;;12.28;100.00;101176.88;4991084;28;20402;-74
2022/10/25 03:23:27;;;;;;;6.28;2.33;;;;;;;12.24;100.00;101178.94;4991492;28;20022;-75
2022/10/25 03:25:55;;;;;;;6.07;2.33;;;;;;;12.21;100.00;101175.56;4997624;28;20539;-75
2022/10/25 03:28:20;;;;;;;9.00;2.42;;;;;;;12.16;100.00;101177.78;4996157;28;20088;-75
2022/10/25 03:30:46;;;;;;;10.38;2.38;;;;;;;12.13;100.00;101176.16;5007574;28;20129;-75
2022/10/25 03:33:11;;;;;;;7.25;2.38;;;;;;;12.13;100.00;101191.66;5011105;28;20057;-76
2022/10/25 03:35:36;;;;;;;7.88;2.08;;;;;;;12.10;100.00;101181.81;5005444;28;20135;-75
2022/10/25 03:38:02;;;;;;;9.45;2.55;;;;;;;12.07;100.00;101195.69;4989692;28;20129;-75
2022/10/25 03:40:27;;;;;;;7.07;2.95;;;;;;;12.05;100.00;101197.66;4973641;28;20022;-75
2022/10/25 03:42:53;;;;;;;8.30;2.40;;;;;;;12.04;100.00;101206.84;4990733;28;20113;-75
2022/10/25 03:45:18;;;;;;;14.75;2.88;;;;;;;12.03;100.00;101206.91;4990723;28;20193;-74
2022/10/25 03:47:43;;;;;;;7.63;2.15;;;;;;;12.02;100.00;101207.91;4991170;28;20022;-75
2022/10/25 03:50:09;;;;;;;5.65;2.30;;;;;;;11.97;100.00;101206.38;4989390;28;20034;-75
2022/10/25 03:52:34;;;;;;;6.65;2.42;;;;;;;11.93;100.00;101204.84;4990668;28;20034;-75
2022/10/25 03:55:00;;;;;;;4.88;2.10;;;;;;;11.92;100.00;101205.84;4990540;28;20049;-74
2022/10/25 03:57:25;;;;;;;7.95;2.40;;;;;;;11.89;100.00;101214.28;4989426;28;20057;-75
2022/10/25 03:59:51;;;;;;;7.70;2.45;;;;;;;11.90;100.00;101221.47;4990315;28;20058;-75
2022/10/25 04:02:16;;;;;;;8.63;2.53;;;;;;;11.91;100.00;101215.03;4990448;28;20113;-76
2022/10/25 04:04:42;;;;;;;5.72;1.77;;;;;;;11.96;100.00;101220.13;4990595;28;20030;-75
2022/10/25 04:07:07;;;;;;;4.45;1.92;;;;;;;12.00;100.00;101218.94;4990362;28;20536;-75
2022/10/25 04:09:33;;;;;;;4.68;2.20;;;;;;;12.03;100.00;101223.28;4990469;28;20441;-76
2022/10/25 04:11:58;;;;;;;4.40;2.42;;;;;;;12.06;100.00;101207.56;4988695;28;20108;-75
2022/10/25 04:14:23;;;;;;;5.80;1.95;;;;;;;12.07;100.00;101209.31;4988602;28;20145;-75
2022/10/25 04:16:49;;;;;;;8.80;2.00;;;;;;;12.03;100.00;101212.38;4990282;28;20044;-76
2022/10/25 04:19:14;;;;;;;9.93;2.28;;;;;;;11.97;100.00;101203.66;4990120;28;20034;-75
2022/10/25 04:21:40;;;;;;;8.23;2.30;;;;;;;11.98;100.00;101218.16;4990597;28;20030;-75
2022/10/25 04:24:05;;;;;;;10.77;2.30;;;;;;;11.94;100.00;101219.41;4988807;28;20102;-75
2022/10/25 04:26:33;;;;;;;10.38;2.47;;;;;;;11.91;100.00;101219.59;4990055;28;20048;-75
2022/10/25 04:28:59;;;;;;;8.82;2.85;;;;;;;11.89;100.00;101227.00;4997421;28;20026;-75
2022/10/25 04:31:24;;;;;;;7.15;2.38;;;;;;;11.86;100.00;101221.78;4998811;28;20077;-75
2022/10/25 04:33:51;;;;;;;8.13;2.90;;;;;;;11.84;100.00;101238.25;4989704;28;20125;-75
2022/10/25 04:36:16;;;;;;;8.75;2.35;;;;;;;11.81;100.00;101234.84;5007278;28;20061;-75
2022/10/25 04:38:42;;;;;;;9.52;2.70;;;;;;;11.80;100.00;101239.44;4995278;28;20045;-75
2022/10/25 04:41:08;;;;;;;8.10;3.03;;;;;;;11.78;100.00;101235.94;4995063;28;20464;-76
2022/10/25 04:43:35;;;;;;;11.05;2.20;;;;;;;11.74;100.00;101232.53;4993979;28;20034;-75
2022/10/25 04:46:01;;;;;;;12.32;2.90;;;;;;;11.69;100.00;101223.81;5009300;28;20038;-75
2022/10/25 04:48:27;;;;;;;9.50;3.10;;;;;;;11.69;100.00;101234.72;5005753;28;20045;-75
2022/10/25 04:50:52;;;;;;;10.75;3.33;;;;;;;11.66;100.00;101243.13;4993220;28;20022;-75
2022/10/25 04:53:18;;;;;;;8.73;2.42;;;;;;;11.65;100.00;101233.19;5009391;28;20489;-76
2022/10/25 04:55:43;;;;;;;14.43;2.90;;;;;;;11.67;100.00;101238.56;5003511;28;20026;-75
2022/10/25 04:58:09;;;;;;;7.70;2.85;;;;;;;11.65;100.00;101237.78;4989401;28;20045;-75
2022/10/25 05:00:34;;;;;;;8.93;3.17;;;;;;;11.62;100.00;101240.72;4989877;28;20121;-75
2022/10/25 05:03:00;;;;;;;7.95;3.00;;;;;;;11.62;100.00;101248.91;5009102;28;20542;-75
2022/10/25 05:05:26;;;;;;;6.07;2.92;;;;;;;11.60;100.00;101250.84;5002854;28;20486;-75
2022/10/25 05:07:51;;;;;;;9.43;3.50;;;;;;;11.57;100.00;101249.22;4994365;28;20072;-75
2022/10/25 05:10:17;;;;;;;7.18;3.17;;;;;;;11.56;100.00;101246.59;4996172;28;20057;-75
2022/10/25 05:12:42;;;;;;;6.75;2.88;;;;;;;11.54;100.00;101254.03;4993995;28;20497;-75
2022/10/25 05:15:08;;;;;;;10.30;3.35;;;;;;;11.55;100.00;101255.75;4998190;28;20041;-75
2022/10/25 05:17:34;;;;;;;11.93;3.40;;;;;;;11.56;100.00;101263.81;4998146;28;20052;-75
2022/10/25 05:19:59;;;;;;;7.07;3.45;;;;;;;11.56;100.00;101260.22;4997472;28;20030;-76
2022/10/25 05:22:25;;;;;;;7.95;2.90;;;;;;;11.53;100.00;101264.06;4997756;28;20037;-75
2022/10/25 05:24:50;;;;;;;11.30;2.97;;;;;;;11.53;100.00;101266.78;4998783;28;20021;-75
2022/10/25 05:27:16;;;;;;;11.20;2.90;;;;;;;11.50;100.00;101267.84;4996437;28;20027;-75
2022/10/25 05:29:41;;;;;;;8.57;2.75;;;;;;;11.49;100.00;101270.69;4996396;28;20041;-76
2022/10/25 05:32:07;;;;;;;13.02;3.10;;;;;;;11.51;100.00;101279.63;5008648;28;20049;-76
2022/10/25 05:34:32;;;;;;;10.20;2.45;;;;;;;11.49;100.00;101277.00;5008552;28;20052;-75
2022/10/25 05:36:58;;;;;;;11.38;3.00;;;;;;;11.48;100.00;101275.28;4993552;28;20034;-75
2022/10/25 05:39:25;;;;;;;7.80;2.65;;;;;;;11.49;100.00;101278.88;4990580;28;20490;-75
2022/10/25 05:41:50;;;;;;;9.60;2.25;;;;;;;11.49;100.00;101289.75;5000637;28;20044;-75
2022/10/25 05:44:16;;;;;;;5.15;2.75;;;;;;;11.46;100.00;101281.78;4988643;28;20481;-75
2022/10/25 05:46:42;;;;;;;5.43;2.80;;;;;;;11.48;100.00;101285.28;5005644;28;20042;-75
2022/10/25 05:49:09;;;;;;;11.73;3.58;;;;;;;11.45;100.00;101297.25;5007379;28;20044;-75
2022/10/25 05:51:35;;;;;;;10.60;3.20;;;;;;;11.45;100.00;101290.94;5008680;28;20395;-76
2022/10/25 05:54:09;;;;;;;9.85;2.72;;;;;;;11.45;100.00;101296.41;5001550;28;20421;-76
2022/10/25 05:56:36;;;;;;;11.27;3.72;;;;;;;11.44;100.00;101305.56;4994571;28;20044;-75
2022/10/25 05:59:07;;;;;;;10.20;3.35;;;;;;;11.47;100.00;101303.50;4999504;28;20030;-75
2022/10/25 06:01:33;;;;;;;10.80;3.20;;;;;;;11.49;100.00;101306.09;5003972;28;20038;-76
2022/10/25 06:03:59;;;;;;;7.85;3.38;;;;;;;11.51;100.00;101309.59;4992749;28;20100;-75
2022/10/25 06:06:24;;;;;;;11.23;4.00;;;;;;;11.52;100.00;101315.91;4992691;28;20034;-76
2022/10/25 06:08:55;;;;;;;11.40;3.67;;;;;;;11.50;100.00;101311.44;4997701;28;20038;-76
2022/10/25 06:11:21;;;;;;;8.77;4.25;;;;;;;11.50;100.00;101316.88;4997543;28;20049;-76
2022/10/25 06:13:46;;;;;;;8.52;3.60;;;;;;;11.49;100.00;101317.88;4995724;28;20110;-75
2022/10/25 06:16:14;;;;;;;13.18;3.80;;;;;;;11.49;100.00;101309.69;5003132;28;20053;-75
2022/10/25 06:18:40;;;;;;;14.10;3.97;;;;;;;11.47;100.00;101311.69;4995466;28;20045;-76
2022/10/25 06:21:10;;;;;;;11.70;4.22;;;;;;;11.47;100.00;101325.28;4992493;28;20026;-75
2022/10/25 06:23:37;;;;;;;13.80;5.32;;;;;;;11.47;100.00;101333.47;4992188;28;20040;-75
2022/10/25 06:26:08;;;;;;;10.10;4.70;;;;;;;11.47;100.00;101338.00;4992203;28;20046;-76
2022/10/25 06:28:33;;;;;;;11.23;5.32;;;;;;;11.48;100.00;101332.47;4991770;28;20046;-75
2022/10/25 06:31:09;;;;;;;16.00;5.38;;;;;;;11.49;100.00;101342.41;4986239;28;20585;-76
2022/10/25 06:33:35;;;;;;;11.40;4.78;;;;;;;11.46;100.00;101337.16;4991975;28;20046;-76
2022/10/25 06:36:02;;;;;;;13.45;5.25;;;;;;;11.50;100.00;101343.28;5011573;28;20030;-75
2022/10/25 06:38:28;;;;;;;11.10;5.47;;;;;;;11.52;100.00;101352.22;4999310;28;20070;-75
2022/10/25 06:41:02;;;;;;;8.65;5.30;;;;;;;11.55;100.00;101351.13;4997577;28;20068;-76
2022/10/25 06:43:28;;;;;;;16.55;5.68;;;;;;;11.59;100.00;101350.81;5001664;28;20041;-76
2022/10/25 06:45:54;;;;;;;13.32;4.97;;;;;;;11.63;100.00;101355.09;5009468;28;20041;-76
2022/10/25 06:48:20;;;;;;;15.65;5.47;;;;;;;11.65;100.00;101353.09;5003076;28;20030;-75
2022/10/25 06:50:45;;;;;;;14.77;5.15;;;;;;;11.67;100.00;101362.06;4997028;28;20034;-75
2022/10/25 06:53:11;;;;;;;9.52;5.03;;;;;;;11.69;100.00;101356.50;4991612;28;20038;-75
2022/10/25 06:55:36;;;;;;;12.15;4.90;;;;;;;11.71;100.00;101363.63;4991603;28;20034;-75
2022/10/25 06:58:02;;;;;;;12.23;4.90;;;;;;;11.68;100.00;101358.34;4991329;28;20390;-75
2022/10/25 07:00:27;;;;;;;16.42;6.55;;;;;;;11.70;100.00;101363.69;5004483;28;20030;-75
2022/10/25 07:02:54;;;;;;;12.95;5.78;;;;;;;11.70;100.00;101366.41;4999639;28;20030;-76
2022/10/25 07:05:20;;;;;;;12.38;5.63;;;;;;;11.70;100.00;101377.31;4989696;28;20383;-75
2022/10/25 07:07:45;;;;;;;14.95;5.97;;;;;;;11.71;100.00;101376.38;4991683;28;20046;-75
2022/10/25 07:10:10;;;;;;;12.68;5.70;;;;;;;11.72;100.00;101380.84;4991709;28;20501;-76
2022/10/25 07:12:36;;;;;;;15.90;5.88;;;;;;;11.76;100.00;101379.66;4992108;28;20022;-77
2022/10/25 07:15:03;;;;;;;10.85;5.75;;;;;;;11.76;100.00;101382.38;4998437;28;20038;-75
2022/10/25 07:17:28;;;;;;;13.38;6.47;;;;;;;11.82;100.00;101387.44;4996095;28;20045;-76
2022/10/25 07:19:53;;;;;;;15.40;6.65;;;;;;;11.86;100.00;101393.56;5010635;28;20042;-76
2022/10/25 07:22:19;;;;;;;14.38;5.65;;;;;;;11.90;100.00;101393.22;5001726;28;20080;-75
2022/10/25 07:24:44;;;;;;;14.48;5.85;;;;;;;11.97;100.00;101389.09;4991439;28;20038;-74
2022/10/25 07:27:10;;;;;;;16.95;6.13;;;;;;;12.05;100.00;101395.88;5002393;28;20034;-76
2022/10/25 07:29:35;;;;;;;12.20;6.47;;;;;;;12.11;100.00;101396.31;4989845;28;20038;-75
2022/10/25 07:32:00;;;;;;;15.15;6.93;;;;;;;12.19;100.00;101401.22;4989362;28;20482;-75
2022/10/25 07:34:26;;;;;;;16.90;6.25;;;;;;;12.24;100.00;101401.78;5003824;28;20498;-76
2022/10/25 07:36:51;;;;;;;12.88;5.22;;;;;;;12.30;100.00;101412.25;4990834;28;20042;-75
2022/10/25 07:39:16;;;;;;;15.05;5.85;;;;;;;12.34;100.00;101413.78;4989824;28;20046;-76
2022/10/25 07:41:42;;;;;;;13.45;6.13;;;;;;;12.41;100.00;101419.69;4991002;28;20390;-75
2022/10/25 07:44:07;;;;;;;16.20;5.97;;;;;;;12.44;100.00;101411.28;4990138;28;20406;-76
2022/10/25 07:46:32;;;;;;;18.85;5.82;;;;;;;12.47;100.00;101417.38;4990716;28;20029;-76
2022/10/25 07:48:58;;;;;;;16.73;6.10;;;;;;;12.51;100.00;101413.47;4991160;28;20074;-76
2022/10/25 07:51:23;;;;;;;13.65;5.72;;;;;;;12.58;100.00;101407.56;4990293;28;20074;-76
2022/10/25 07:53:49;;;;;;;14.68;6.70;;;;;;;12.67;100.00;101424.13;5006302;28;20133;-75
2022/10/25 07:56:17;;;;;;;16.90;5.88;;;;;;;12.71;100.00;101422.06;5000596;28;20450;-75
2022/10/25 07:58:42;;;;;;;11.98;5.82;;;;;;;12.68;100.00;101415.00;4992748;28;20482;-75
2022/10/25 08:01:09;;;;;;;12.05;6.05;;;;;;;12.71;100.00;101425.66;4988972;28;20045;-76
2022/10/25 08:03:35;;;;;;;15.32;6.68;;;;;;;12.73;100.00;101429.19;4988998;28;20049;-76
2022/10/25 08:06:01;;;;;;;13.32;6.22;;;;;;;12.79;100.00;101430.59;4990134;28;20038;-76
2022/10/25 08:08:27;;;;;;;12.63;6.00;;;;;;;12.86;100.00;101431.00;4989156;28;20477;-76
2022/10/25 08:10:53;;;;;;;13.70;6.65;;;;;;;12.92;100.00;101438.78;4989909;28;20451;-75
2022/10/25 08:13:18;;;;;;;14.43;6.18;;;;;;;12.94;99.73;101431.31;4995695;28;20099;-75
2022/10/25 08:15:52;;;;;;;13.45;5.90;;;;;;;13.01;100.00;101435.38;4992252;28;20034;-76
2022/10/25 08:18:17;;;;;;;17.58;7.50;;;;;;;13.08;99.96;101435.78;4990053;28;20508;-75
2022/10/25 08:20:43;;;;;;;10.65;5.50;;;;;;;13.15;100.00;101437.06;4990127;28;20038;-75
2022/10/25 08:23:08;;;;;;;14.48;6.32;;;;;;;13.19;99.64;101438.56;4988769;28;20406;-75
2022/10/25 08:25:34;;;;;;;11.95;5.63;;;;;;;13.23;98.98;101448.34;4989897;28;20406;-76
2022/10/25 08:27:59;;;;;;;12.20;6.93;;;;;;;13.25;98.81;101440.91;4992223;28;20433;-75
2022/10/25 08:30:24;;;;;;;13.68;5.72;;;;;;;13.26;98.32;101439.91;4992842;28;20386;-75
2022/10/25 08:32:50;;;;;;;11.73;6.25;;;;;;;13.28;98.56;101440.66;4988299;28;20504;-75
2022/10/25 08:35:16;;;;;;;10.18;5.68;;;;;;;13.34;99.08;101434.75;4989431;28;20077;-75
2022/10/25 08:37:41;;;;;;;11.02;5.95;;;;;;;13.43;98.70;101445.00;4994707;28;20034;-76
2022/10/25 08:40:15;;;;;;;10.68;5.78;;;;;;;13.53;98.21;101445.19;4999421;28;20046;-75
2022/10/25 08:43:04;;;;;;;11.75;4.90;;;;;;;13.64;98.23;101449.84;5005652;28;20050;-75
2022/10/25 08:45:40;;;;;;;19.92;5.43;;;;;;;13.64;97.21;101442.50;4988431;28;20038;-75
2022/10/25 08:48:14;;;;;;;11.43;5.20;;;;;;;13.68;96.98;101446.75;4989538;28;20120;-76
2022/10/25 08:50:49;;;;;;;12.60;5.78;;;;;;;13.73;97.57;101450.00;4990171;28;20501;-76
2022/10/25 08:53:46;;;;;;;15.00;5.50;;;;;;;13.90;97.76;101450.59;4989768;28;20038;-76
2022/10/25 08:56:15;;;;;;;16.17;5.47;;;;;;;13.94;96.65;101450.25;4989725;28;20058;-75
2022/10/25 08:58:50;;;;;;;18.13;6.10;;;;;;;14.02;96.91;101447.75;4988425;28;20058;-75
2022/10/25 09:01:41;;;;;;;18.13;5.93;;;;;;;14.16;95.92;101454.03;4989532;28;20374;-75
2022/10/25 09:04:07;;;;;;;8.70;4.75;;;;;;;14.38;97.28;101464.19;4989040;28;20570;-75
2022/10/25 09:06:47;;;;;;;11.93;4.95;;;;;;;14.48;95.52;101463.34;4988148;28;20502;-75
2022/10/25 09:09:36;;;;;;;12.07;5.07;;;;;;;14.47;94.91;101457.97;4989544;28;20068;-75
2022/10/25 09:12:26;;;;;;;14.20;5.25;;;;;;;14.50;92.81;101464.13;4988826;28;20034;-75
2022/10/25 09:15:16;;;;;;;14.82;4.70;;;;;;;14.57;93.70;101466.38;4997859;28;20568;-75
2022/10/25 09:17:50;;;;;;;12.18;4.63;;;;;;;14.61;93.52;101471.47;4989732;28;20057;-75
2022/10/25 09:20:35;;;;;;;11.70;5.03;;;;;;;14.58;92.55;101479.94;4989170;28;20034;-75
2022/10/25 09:23:04;;;;;;;10.48;4.18;;;;;;;14.49;91.34;101484.25;4989354;28;20038;-75
2022/10/25 09:25:44;;;;;;;13.35;4.50;;;;;;;14.46;91.69;101487.22;4988898;28;20561;-75
2022/10/25 09:28:40;;;;;;;9.27;4.20;;;;;;;14.43;92.13;101492.06;4991377;28;20530;-75
2022/10/25 09:31:11;;;;;;;12.93;4.40;;;;;;;14.43;92.61;101483.84;4988813;28;20130;-75
2022/10/25 09:33:43;;;;;;;9.55;4.35;;;;;;;14.52;93.13;101489.50;4987677;28;21030;-75
2022/10/25 09:36:10;;;;;;;11.65;4.72;;;;;;;14.59;92.52;101489.88;4988979;28;20125;-75
2022/10/25 09:38:55;;;;;;;10.15;4.80;;;;;;;14.65;93.13;101480.34;4989124;28;20458;-74
2022/10/25 09:41:41;;;;;;;10.77;4.53;;;;;;;14.76;92.74;101494.91;4996056;28;20497;-74
2022/10/25 09:44:31;;;;;;;14.32;5.30;;;;;;;14.89;92.07;101488.47;4989797;28;20474;-76
2022/10/25 09:47:13;;;;;;;14.10;4.57;;;;;;;14.93;90.36;101490.81;4988877;28;20201;-74
2022/10/25 09:49:50;;;;;;;16.10;5.07;;;;;;;15.02;90.82;101497.44;4998800;28;20048;-76
2022/10/25 09:52:38;;;;;;;12.30;4.28;;;;;;;15.07;90.28;101497.06;5008485;28;20466;-75
2022/10/25 09:55:45;;;;;;;12.48;4.57;;;;;;;15.04;91.36;101496.28;5008474;28;20569;-76
2022/10/25 09:58:31;;;;;;;12.02;3.95;;;;;;;15.01;90.46;101492.94;5006427;28;20046;-74
2022/10/25 10:01:04;;;;;;;10.50;3.85;;;;;;;15.00;90.09;101504.88;5006019;28;20541;-75
2022/10/25 10:03:34;;;;;;;9.88;4.05;;;;;;;15.00;89.93;101508.50;5008467;28;20044;-75
2022/10/25 10:06:03;;;;;;;11.40;3.70;;;;;;;14.97;89.70;101506.03;4992098;28;20030;-74
2022/10/25 10:08:32;;;;;;;11.65;3.85;;;;;;;14.93;89.72;101510.00;4989209;28;20169;-75
2022/10/25 10:10:58;;;;;;;11.30;3.40;;;;;;;14.92;89.90;101508.28;4988881;28;20058;-75
2022/10/25 10:13:37;;;;;;;14.88;3.70;;;;;;;14.98;90.38;101507.75;4991872;28;20038;-75
2022/10/25 10:16:30;;;;;;;16.17;3.78;;;;;;;15.03;90.24;101516.47;4989267;28;20065;-75
2022/10/25 10:19:14;;;;;;;12.30;3.92;;;;;;;15.09;89.94;101515.13;4988724;28;20034;-75
2022/10/25 10:21:45;;;;;;;11.25;3.67;;;;;;;15.10;88.91;101515.97;4988784;28;20564;-74
2022/10/25 10:24:18;;;;;;;11.20;3.17;;;;;;;15.15;88.43;101516.47;4989313;28;20034;-75
2022/10/25 10:26:47;;;;;;;12.60;3.35;;;;;;;15.18;88.51;101518.97;4988727;28;20153;-75
2022/10/25 10:29:21;;;;;;;12.00;3.38;;;;;;;15.25;89.16;101523.84;4991302;28;20061;-75
2022/10/25 10:31:56;;;;;;;10.82;3.22;;;;;;;15.27;89.34;101521.84;4988587;28;20550;-75
2022/10/25 10:34:25;;;;;;;13.73;3.42;;;;;;;15.27;88.16;101531.94;4988135;28;20081;-75
2022/10/25 10:37:24;;;;;;;8.15;2.63;;;;;;;15.23;88.57;101528.56;4988809;28;20038;-76
2022/10/25 10:39:58;;;;;;;7.75;3.00;;;;;;;15.19;88.07;101523.47;4958001;28;20137;-75
2022/10/25 10:42:31;;;;;;;8.82;2.47;;;;;;;15.17;87.22;101530.94;5007056;28;20041;-75
2022/10/25 10:45:08;;;;;;;6.72;2.67;;;;;;;15.18;88.23;101536.28;5000869;28;20042;-75
2022/10/25 10:47:48;;;;;;;11.65;3.00;;;;;;;15.21;88.58;101537.94;4992280;28;20464;-74
2022/10/25 10:50:25;;;;;;;10.68;2.67;;;;;;;15.28;89.14;101533.69;4992045;28;20045;-75
2022/10/25 10:52:54;;;;;;;11.88;3.17;;;;;;;15.35;87.14;101536.81;4991801;28;20042;-75
2022/10/25 10:55:28;;;;;;;8.93;3.22;;;;;;;15.32;86.86;101538.78;4991524;28;20441;-75
2022/10/25 10:57:59;;;;;;;8.23;2.80;;;;;;;15.35;87.05;101536.81;5002353;28;20090;-75
2022/10/25 11:00:27;;;;;;;10.20;2.78;;;;;;;15.45;88.05;101537.78;4991061;28;20461;-75
2022/10/25 11:02:53;;;;;;;9.80;3.03;;;;;;;15.54;88.13;101537.91;4991400;28;20549;-75
2022/10/25 11:05:34;;;;;;;10.00;3.33;;;;;;;15.56;84.92;101535.91;4991405;28;20132;-74
2022/10/25 11:08:17;;;;;;;8.90;3.10;;;;;;;15.62;87.04;101534.53;4991631;28;20042;-75
2022/10/25 11:10:42;;;;;;;9.13;2.92;;;;;;;15.64;87.05;101537.19;4991769;28;20030;-75
2022/10/25 11:13:09;;;;;;;16.13;4.18;;;;;;;15.68;85.63;101534.06;4994373;28;20042;-75
2022/10/25 11:16:12;;;;;;;8.65;3.33;;;;;;;15.70;87.52;101533.91;4991262;28;20490;-76
2022/10/25 11:18:49;;;;;;;10.65;3.20;;;;;;;15.62;86.29;101534.53;4991496;28;20046;-75
2022/10/25 11:21:31;;;;;;;11.80;2.97;;;;;;;15.59;85.49;101537.53;4991565;28;20044;-74
2022/10/25 11:24:07;;;;;;;;;;;;;;;15.67;87.51;101542.44;4991711;28;20038;-75
2022/10/25 11:27:01;;;;;;;9.68;3.00;;;;;;;15.59;85.20;101543.03;4990983;28;19917;-75
2022/10/25 11:29:57;;;;;;;8.23;3.70;;;;;;;15.64;85.66;101538.06;4991038;28;20100;-75